ZYL weather

Osmany International Airport
Sylhet, Sylhet Division, Bangladesh

Public forecast

Using degrees Celsius for public forecast. Weather courtesy of forecast.io.

METAR (pilot weather report)

Closest report is Lokpriya Gopinath Bordoloi International Airport, 70.3 nm (130.2 km) NNW. Retrieved 2019/09/17 01:30 UTC (16 minutes ago):

VEGT 170130Z 00000KT 3000 BR SCT018 SCT100 27/27 Q1007 NOSIG

TAF (pilot weather forecast)

Forecast is more than 12 hours old.

Closest forecast is Silchar Airport, 60.6 nm (112.2 km) E. Retrieved 2019/09/16 12:30 UTC (13 hours ago):

TAF VEKU 160930Z 1612/1624 20007KT 6000 SCT020 SCT100 BKN200 TEMPO 1612/1616 3000 TSRABR SCT007 SCT015 FEWCB/TCU025 BKN080